Pagina principale
METAR-TAF:

METAR-TAF

Aeroporti :

Montichiari

Brescia, Italia

latitudine: 45-24-02N, longitudine: 010-18-59E, altezza: 104 m

Osservazione

Il bollettino è stato emesso 40 minuti fa, alle 10:20 UTC
Vento 5 kt da sud, variando fra sud-est e sud-ovest
Temperature 11°C
Umidità 50%
Pressione 1015 hPa
Visibilità 10 km o più

METAR: LIPO 091020Z AUTO 18005KT 140V220 9999 FEW110/// 11/01 Q1015

Ora: 12:00 (11:00 UTC)

Previsione

Il bollettino è stato emesso 6 ore e 0 minuti fa, alle 05:00 UTC
Previsione valida dal 09 alle 06 UTC al 10 alle 06 UTC
Vento 4 kt da direzioni variabili
Visibilità 10 km o più
Nuvoloso ad un'altezza di 8000 ft

TAF: LIPO 090500Z 0906/1006 VRB04KT 9999 BKN080

Osservazioni e previsioni meteorologiche di più di 4000 aeroporti (messaggi METAR e TAF).

Le stazioni disponibili sono rappresentate dai dischi gialli e rossi sulla carta.

Puntare il mouse per vedere il nome della stazione.

Clicca sopra per visualizzare le osservazioni e previsioni meteorologiche.

Per cambiare la mappa : fare clic sui pulsanti verdi con una croce nera per ingrandire, il pulsante verde con un trattino per diminuire, o sulla freccia verde per le mappe adiacenti.


METAR-TAF: